sensor_id;sensor_type;location;lat;lon;timestamp;temperature;humidity
11836;DHT22;5977;51.972;7.640;2022-11-15T00:02:12;16.20;76.10
11836;DHT22;5977;51.972;7.640;2022-11-15T00:04:59;16.10;76.30
11836;DHT22;5977;51.972;7.640;2022-11-15T00:07:45;16.00;76.60
11836;DHT22;5977;51.972;7.640;2022-11-15T00:10:40;16.10;76.70
11836;DHT22;5977;51.972;7.640;2022-11-15T00:13:28;16.10;76.70
11836;DHT22;5977;51.972;7.640;2022-11-15T00:16:17;16.00;76.40
11836;DHT22;5977;51.972;7.640;2022-11-15T00:19:03;16.10;76.80
11836;DHT22;5977;51.972;7.640;2022-11-15T00:21:49;15.90;76.60
11836;DHT22;5977;51.972;7.640;2022-11-15T00:24:36;16.00;76.70
11836;DHT22;5977;51.972;7.640;2022-11-15T00:27:22;16.00;76.90
11836;DHT22;5977;51.972;7.640;2022-11-15T00:30:11;16.20;76.70
11836;DHT22;5977;51.972;7.640;2022-11-15T00:33:01;16.20;76.30
11836;DHT22;5977;51.972;7.640;2022-11-15T00:35:48;16.20;76.10
11836;DHT22;5977;51.972;7.640;2022-11-15T00:38:36;16.20;76.60
11836;DHT22;5977;51.972;7.640;2022-11-15T00:41:22;16.20;76.30
11836;DHT22;5977;51.972;7.640;2022-11-15T00:44:08;16.00;76.30
11836;DHT22;5977;51.972;7.640;2022-11-15T00:46:56;16.10;76.40
11836;DHT22;5977;51.972;7.640;2022-11-15T00:49:43;16.10;76.40
11836;DHT22;5977;51.972;7.640;2022-11-15T00:52:29;16.20;76.70
11836;DHT22;5977;51.972;7.640;2022-11-15T00:55:16;16.20;76.50
11836;DHT22;5977;51.972;7.640;2022-11-15T00:58:03;16.20;76.50
11836;DHT22;5977;51.972;7.640;2022-11-15T01:00:49;16.30;76.60
11836;DHT22;5977;51.972;7.640;2022-11-15T01:03:38;16.40;76.50
11836;DHT22;5977;51.972;7.640;2022-11-15T01:06:25;16.50;76.10
11836;DHT22;5977;51.972;7.640;2022-11-15T01:09:12;16.50;76.20
11836;DHT22;5977;51.972;7.640;2022-11-15T01:11:59;16.50;76.30
11836;DHT22;5977;51.972;7.640;2022-11-15T01:14:45;16.40;76.20
11836;DHT22;5977;51.972;7.640;2022-11-15T01:17:32;16.40;76.50
11836;DHT22;5977;51.972;7.640;2022-11-15T01:20:21;16.60;76.30
11836;DHT22;5977;51.972;7.640;2022-11-15T01:23:07;16.50;75.80
11836;DHT22;5977;51.972;7.640;2022-11-15T01:25:58;16.50;76.20
11836;DHT22;5977;51.972;7.640;2022-11-15T01:28:45;16.40;76.20
11836;DHT22;5977;51.972;7.640;2022-11-15T01:31:31;16.40;76.50
11836;DHT22;5977;51.972;7.640;2022-11-15T01:34:18;16.40;76.70
11836;DHT22;5977;51.972;7.640;2022-11-15T01:37:05;16.30;76.50
11836;DHT22;5977;51.972;7.640;2022-11-15T01:39:52;16.30;76.50
11836;DHT22;5977;51.972;7.640;2022-11-15T01:42:38;16.40;76.80
11836;DHT22;5977;51.972;7.640;2022-11-15T01:45:25;16.40;76.90
11836;DHT22;5977;51.972;7.640;2022-11-15T01:48:11;16.40;76.60
11836;DHT22;5977;51.972;7.640;2022-11-15T01:50:59;16.40;76.80
11836;DHT22;5977;51.972;7.640;2022-11-15T01:53:50;16.40;76.80
11836;DHT22;5977;51.972;7.640;2022-11-15T01:56:42;16.60;76.50
11836;DHT22;5977;51.972;7.640;2022-11-15T01:59:30;16.60;76.30
11836;DHT22;5977;51.972;7.640;2022-11-15T02:02:17;16.50;76.70
11836;DHT22;5977;51.972;7.640;2022-11-15T02:05:04;16.30;77.00
11836;DHT22;5977;51.972;7.640;2022-11-15T02:07:51;16.30;77.30
11836;DHT22;5977;51.972;7.640;2022-11-15T02:10:38;16.30;77.50
11836;DHT22;5977;51.972;7.640;2022-11-15T02:13:25;16.30;78.10
11836;DHT22;5977;51.972;7.640;2022-11-15T02:16:20;16.40;77.50
11836;DHT22;5977;51.972;7.640;2022-11-15T02:19:24;16.30;77.30
11836;DHT22;5977;51.972;7.640;2022-11-15T02:22:24;16.20;77.40
11836;DHT22;5977;51.972;7.640;2022-11-15T02:25:30;16.30;77.50
11836;DHT22;5977;51.972;7.640;2022-11-15T02:28:37;16.30;77.30
11836;DHT22;5977;51.972;7.640;2022-11-15T02:31:31;16.30;77.60
11836;DHT22;5977;51.972;7.640;2022-11-15T02:34:26;16.30;77.80
11836;DHT22;5977;51.972;7.640;2022-11-15T02:37:18;16.30;77.90
11836;DHT22;5977;51.972;7.640;2022-11-15T02:40:13;16.40;77.90
11836;DHT22;5977;51.972;7.640;2022-11-15T02:43:07;16.40;77.70
11836;DHT22;5977;51.972;7.640;2022-11-15T02:46:17;16.40;77.80
11836;DHT22;5977;51.972;7.640;2022-11-15T02:49:06;16.40;77.80
11836;DHT22;5977;51.972;7.640;2022-11-15T02:51:53;16.40;77.90
11836;DHT22;5977;51.972;7.640;2022-11-15T02:54:40;16.50;77.90
11836;DHT22;5977;51.972;7.640;2022-11-15T02:57:36;16.50;77.80
11836;DHT22;5977;51.972;7.640;2022-11-15T03:00:27;16.50;77.60
11836;DHT22;5977;51.972;7.640;2022-11-15T03:03:36;16.50;77.70
11836;DHT22;5977;51.972;7.640;2022-11-15T03:06:34;16.50;77.90
11836;DHT22;5977;51.972;7.640;2022-11-15T03:09:29;16.50;78.10
11836;DHT22;5977;51.972;7.640;2022-11-15T03:12:25;16.50;78.00
11836;DHT22;5977;51.972;7.640;2022-11-15T03:15:19;16.40;78.20
11836;DHT22;5977;51.972;7.640;2022-11-15T03:18:12;16.40;78.40
11836;DHT22;5977;51.972;7.640;2022-11-15T03:21:00;16.40;78.70
11836;DHT22;5977;51.972;7.640;2022-11-15T03:23:49;16.30;78.90
11836;DHT22;5977;51.972;7.640;2022-11-15T03:26:38;16.40;78.90
11836;DHT22;5977;51.972;7.640;2022-11-15T03:29:29;16.40;79.10
11836;DHT22;5977;51.972;7.640;2022-11-15T03:32:20;16.30;79.10
11836;DHT22;5977;51.972;7.640;2022-11-15T03:35:12;16.30;79.30
11836;DHT22;5977;51.972;7.640;2022-11-15T03:38:03;16.40;79.20
11836;DHT22;5977;51.972;7.640;2022-11-15T03:40:58;16.50;79.40
11836;DHT22;5977;51.972;7.640;2022-11-15T03:43:49;16.40;79.20
11836;DHT22;5977;51.972;7.640;2022-11-15T03:46:42;16.50;80.00
11836;DHT22;5977;51.972;7.640;2022-11-15T03:49:33;16.50;79.30
11836;DHT22;5977;51.972;7.640;2022-11-15T03:52:21;16.40;79.40
11836;DHT22;5977;51.972;7.640;2022-11-15T03:55:12;16.50;79.50
11836;DHT22;5977;51.972;7.640;2022-11-15T03:58:01;16.50;79.40
11836;DHT22;5977;51.972;7.640;2022-11-15T04:00:47;16.50;79.40
11836;DHT22;5977;51.972;7.640;2022-11-15T04:03:34;16.50;79.80
11836;DHT22;5977;51.972;7.640;2022-11-15T04:06:20;16.50;80.10
11836;DHT22;5977;51.972;7.640;2022-11-15T04:09:07;16.50;80.10
11836;DHT22;5977;51.972;7.640;2022-11-15T04:11:53;16.40;80.00
11836;DHT22;5977;51.972;7.640;2022-11-15T04:14:41;16.50;80.10
11836;DHT22;5977;51.972;7.640;2022-11-15T04:17:49;16.50;80.10
11836;DHT22;5977;51.972;7.640;2022-11-15T04:20:35;16.50;80.20
11836;DHT22;5977;51.972;7.640;2022-11-15T04:23:39;16.50;80.20
11836;DHT22;5977;51.972;7.640;2022-11-15T04:26:46;16.50;80.40
11836;DHT22;5977;51.972;7.640;2022-11-15T04:29:32;16.40;80.60
11836;DHT22;5977;51.972;7.640;2022-11-15T04:32:22;16.60;80.40
11836;DHT22;5977;51.972;7.640;2022-11-15T04:35:09;16.50;80.50
11836;DHT22;5977;51.972;7.640;2022-11-15T04:37:56;16.50;81.20
11836;DHT22;5977;51.972;7.640;2022-11-15T04:40:42;16.50;80.50
11836;DHT22;5977;51.972;7.640;2022-11-15T04:43:29;16.50;80.90
11836;DHT22;5977;51.972;7.640;2022-11-15T04:46:17;16.50;81.10
11836;DHT22;5977;51.972;7.640;2022-11-15T04:49:04;16.50;81.20
11836;DHT22;5977;51.972;7.640;2022-11-15T04:51:51;16.70;80.20
11836;DHT22;5977;51.972;7.640;2022-11-15T04:54:37;16.70;80.50
11836;DHT22;5977;51.972;7.640;2022-11-15T04:57:23;16.70;80.50
11836;DHT22;5977;51.972;7.640;2022-11-15T05:00:12;16.70;80.60
11836;DHT22;5977;51.972;7.640;2022-11-15T05:02:59;16.70;80.60
11836;DHT22;5977;51.972;7.640;2022-11-15T05:06:05;16.90;80.00
11836;DHT22;5977;51.972;7.640;2022-11-15T05:08:51;16.80;80.00
11836;DHT22;5977;51.972;7.640;2022-11-15T05:11:38;16.80;80.50
11836;DHT22;5977;51.972;7.640;2022-11-15T05:14:24;16.80;80.50
11836;DHT22;5977;51.972;7.640;2022-11-15T05:17:11;16.70;81.10
11836;DHT22;5977;51.972;7.640;2022-11-15T05:19:57;16.70;81.30
11836;DHT22;5977;51.972;7.640;2022-11-15T05:22:45;16.70;81.60
11836;DHT22;5977;51.972;7.640;2022-11-15T05:25:31;16.60;82.00
11836;DHT22;5977;51.972;7.640;2022-11-15T05:28:18;16.50;82.60
11836;DHT22;5977;51.972;7.640;2022-11-15T05:31:06;16.70;81.80
11836;DHT22;5977;51.972;7.640;2022-11-15T05:33:53;16.80;81.40
11836;DHT22;5977;51.972;7.640;2022-11-15T05:36:42;16.80;81.60
11836;DHT22;5977;51.972;7.640;2022-11-15T05:39:30;16.70;81.80
11836;DHT22;5977;51.972;7.640;2022-11-15T05:42:17;16.80;81.40
11836;DHT22;5977;51.972;7.640;2022-11-15T05:45:06;16.90;81.70
11836;DHT22;5977;51.972;7.640;2022-11-15T05:47:54;16.80;81.50
11836;DHT22;5977;51.972;7.640;2022-11-15T05:50:44;16.80;81.70
11836;DHT22;5977;51.972;7.640;2022-11-15T05:53:31;16.80;82.10
11836;DHT22;5977;51.972;7.640;2022-11-15T05:56:19;16.80;82.10
11836;DHT22;5977;51.972;7.640;2022-11-15T05:59:07;16.80;81.80
11836;DHT22;5977;51.972;7.640;2022-11-15T06:01:54;16.80;81.70
11836;DHT22;5977;51.972;7.640;2022-11-15T06:04:41;16.80;82.00
11836;DHT22;5977;51.972;7.640;2022-11-15T06:07:28;16.80;82.10
11836;DHT22;5977;51.972;7.640;2022-11-15T06:10:15;16.80;82.00
11836;DHT22;5977;51.972;7.640;2022-11-15T06:13:04;16.90;81.80
11836;DHT22;5977;51.972;7.640;2022-11-15T06:15:50;16.90;81.80
11836;DHT22;5977;51.972;7.640;2022-11-15T06:18:37;16.90;82.00
11836;DHT22;5977;51.972;7.640;2022-11-15T06:21:24;16.90;82.20
11836;DHT22;5977;51.972;7.640;2022-11-15T06:24:12;16.90;82.20
11836;DHT22;5977;51.972;7.640;2022-11-15T06:26:59;16.90;81.90
11836;DHT22;5977;51.972;7.640;2022-11-15T06:29:46;16.80;82.10
11836;DHT22;5977;51.972;7.640;2022-11-15T06:32:33;16.90;81.80
11836;DHT22;5977;51.972;7.640;2022-11-15T06:35:19;16.90;81.90
11836;DHT22;5977;51.972;7.640;2022-11-15T06:38:08;16.90;82.20
11836;DHT22;5977;51.972;7.640;2022-11-15T06:40:54;16.90;82.20
11836;DHT22;5977;51.972;7.640;2022-11-15T06:43:41;16.90;82.30
11836;DHT22;5977;51.972;7.640;2022-11-15T06:46:28;16.90;82.40
11836;DHT22;5977;51.972;7.640;2022-11-15T06:49:15;16.80;82.60
11836;DHT22;5977;51.972;7.640;2022-11-15T06:52:01;16.80;82.60
11836;DHT22;5977;51.972;7.640;2022-11-15T06:54:48;16.90;82.50
11836;DHT22;5977;51.972;7.640;2022-11-15T06:57:34;16.90;82.40
11836;DHT22;5977;51.972;7.640;2022-11-15T07:00:21;16.80;82.80
11836;DHT22;5977;51.972;7.640;2022-11-15T07:03:10;16.80;82.80
11836;DHT22;5977;51.972;7.640;2022-11-15T07:05:57;16.40;85.10
11836;DHT22;5977;51.972;7.640;2022-11-15T07:08:51;16.00;87.00
11836;DHT22;5977;51.972;7.640;2022-11-15T07:11:38;15.90;88.60
11836;DHT22;5977;51.972;7.640;2022-11-15T07:14:24;16.00;88.40
11836;DHT22;5977;51.972;7.640;2022-11-15T07:17:11;15.50;90.30
11836;DHT22;5977;51.972;7.640;2022-11-15T07:19:58;15.70;90.70
11836;DHT22;5977;51.972;7.640;2022-11-15T07:22:45;15.50;91.80
11836;DHT22;5977;51.972;7.640;2022-11-15T07:25:31;15.90;91.20
11836;DHT22;5977;51.972;7.640;2022-11-15T07:28:18;15.90;91.10
11836;DHT22;5977;51.972;7.640;2022-11-15T07:31:07;15.40;92.50
11836;DHT22;5977;51.972;7.640;2022-11-15T07:33:53;15.10;94.60
11836;DHT22;5977;51.972;7.640;2022-11-15T07:36:41;15.40;94.80
11836;DHT22;5977;51.972;7.640;2022-11-15T07:39:27;15.30;95.50
11836;DHT22;5977;51.972;7.640;2022-11-15T07:42:14;15.70;94.80
11836;DHT22;5977;51.972;7.640;2022-11-15T07:45:18;15.80;94.10
11836;DHT22;5977;51.972;7.640;2022-11-15T07:48:05;15.80;94.90
11836;DHT22;5977;51.972;7.640;2022-11-15T07:50:52;16.00;94.30
11836;DHT22;5977;51.972;7.640;2022-11-15T07:53:40;16.00;94.30
11836;DHT22;5977;51.972;7.640;2022-11-15T07:56:26;16.20;93.90
11836;DHT22;5977;51.972;7.640;2022-11-15T07:59:12;16.20;94.00
11836;DHT22;5977;51.972;7.640;2022-11-15T08:01:59;16.00;95.40
11836;DHT22;5977;51.972;7.640;2022-11-15T08:04:45;16.00;95.40
11836;DHT22;5977;51.972;7.640;2022-11-15T08:07:32;16.30;94.10
11836;DHT22;5977;51.972;7.640;2022-11-15T08:10:19;16.30;93.80
11836;DHT22;5977;51.972;7.640;2022-11-15T08:13:07;16.30;94.40
11836;DHT22;5977;51.972;7.640;2022-11-15T08:15:58;16.30;94.00
11836;DHT22;5977;51.972;7.640;2022-11-15T08:18:45;16.20;94.70
11836;DHT22;5977;51.972;7.640;2022-11-15T08:21:32;15.80;96.80
11836;DHT22;5977;51.972;7.640;2022-11-15T08:24:18;16.00;96.20
11836;DHT22;5977;51.972;7.640;2022-11-15T08:27:06;15.90;96.80
11836;DHT22;5977;51.972;7.640;2022-11-15T08:30:00;16.20;95.70
11836;DHT22;5977;51.972;7.640;2022-11-15T08:32:47;16.20;95.10
11836;DHT22;5977;51.972;7.640;2022-11-15T08:35:33;16.20;94.90
11836;DHT22;5977;51.972;7.640;2022-11-15T08:38:20;15.90;96.60
11836;DHT22;5977;51.972;7.640;2022-11-15T08:41:06;16.00;96.30
11836;DHT22;5977;51.972;7.640;2022-11-15T08:43:54;16.20;95.60
11836;DHT22;5977;51.972;7.640;2022-11-15T08:46:40;16.50;93.80
11836;DHT22;5977;51.972;7.640;2022-11-15T08:49:27;16.60;92.70
11836;DHT22;5977;51.972;7.640;2022-11-15T08:52:13;16.80;92.00
11836;DHT22;5977;51.972;7.640;2022-11-15T08:55:00;17.00;91.20
11836;DHT22;5977;51.972;7.640;2022-11-15T08:57:46;17.00;90.80
11836;DHT22;5977;51.972;7.640;2022-11-15T09:00:34;17.00;90.50
11836;DHT22;5977;51.972;7.640;2022-11-15T09:03:21;17.10;90.40
11836;DHT22;5977;51.972;7.640;2022-11-15T09:06:07;17.20;90.40
11836;DHT22;5977;51.972;7.640;2022-11-15T09:08:54;17.20;90.10
11836;DHT22;5977;51.972;7.640;2022-11-15T09:11:41;17.30;89.60
11836;DHT22;5977;51.972;7.640;2022-11-15T09:14:27;17.20;89.60
11836;DHT22;5977;51.972;7.640;2022-11-15T09:17:15;17.20;89.60
11836;DHT22;5977;51.972;7.640;2022-11-15T09:20:09;17.30;88.80
11836;DHT22;5977;51.972;7.640;2022-11-15T09:22:59;17.30;88.30
11836;DHT22;5977;51.972;7.640;2022-11-15T09:25:46;17.40;87.70
11836;DHT22;5977;51.972;7.640;2022-11-15T09:28:33;17.20;88.80
11836;DHT22;5977;51.972;7.640;2022-11-15T09:31:20;17.30;88.20
11836;DHT22;5977;51.972;7.640;2022-11-15T09:34:08;17.30;88.30
11836;DHT22;5977;51.972;7.640;2022-11-15T09:36:54;17.40;87.60
11836;DHT22;5977;51.972;7.640;2022-11-15T09:39:41;17.30;87.20
11836;DHT22;5977;51.972;7.640;2022-11-15T09:42:48;17.30;87.20
11836;DHT22;5977;51.972;7.640;2022-11-15T09:45:42;17.30;86.90
11836;DHT22;5977;51.972;7.640;2022-11-15T09:51:50;17.30;86.20
11836;DHT22;5977;51.972;7.640;2022-11-15T09:54:25;17.30;86.40
11836;DHT22;5977;51.972;7.640;2022-11-15T09:57:16;17.40;86.10
11836;DHT22;5977;51.972;7.640;2022-11-15T10:00:02;17.40;85.50
11836;DHT22;5977;51.972;7.640;2022-11-15T10:03:08;17.40;84.70
11836;DHT22;5977;51.972;7.640;2022-11-15T10:05:39;17.50;85.00
11836;DHT22;5977;51.972;7.640;2022-11-15T10:08:20;17.50;85.20
11836;DHT22;5977;51.972;7.640;2022-11-15T10:10:53;17.50;85.60
11836;DHT22;5977;51.972;7.640;2022-11-15T10:13:44;17.60;84.80
11836;DHT22;5977;51.972;7.640;2022-11-15T10:16:28;17.50;84.10
11836;DHT22;5977;51.972;7.640;2022-11-15T10:19:06;17.60;83.80
11836;DHT22;5977;51.972;7.640;2022-11-15T10:21:55;17.60;83.30
11836;DHT22;5977;51.972;7.640;2022-11-15T10:24:28;17.60;83.50
11836;DHT22;5977;51.972;7.640;2022-11-15T10:26:56;17.70;83.30
11836;DHT22;5977;51.972;7.640;2022-11-15T10:29:24;17.60;83.00
11836;DHT22;5977;51.972;7.640;2022-11-15T10:31:53;17.60;82.80
11836;DHT22;5977;51.972;7.640;2022-11-15T10:34:23;17.60;82.40
11836;DHT22;5977;51.972;7.640;2022-11-15T10:36:55;17.70;81.70
11836;DHT22;5977;51.972;7.640;2022-11-15T10:39:23;17.90;81.90
11836;DHT22;5977;51.972;7.640;2022-11-15T10:41:53;17.90;81.50
11836;DHT22;5977;51.972;7.640;2022-11-15T10:44:26;17.80;80.50
11836;DHT22;5977;51.972;7.640;2022-11-15T10:50:07;17.70;80.50
11836;DHT22;5977;51.972;7.640;2022-11-15T10:52:53;17.70;81.20
11836;DHT22;5977;51.972;7.640;2022-11-15T10:55:24;17.80;81.10
11836;DHT22;5977;51.972;7.640;2022-11-15T10:57:56;17.70;80.70
11836;DHT22;5977;51.972;7.640;2022-11-15T11:00:29;17.70;80.30
11836;DHT22;5977;51.972;7.640;2022-11-15T11:02:59;17.60;79.90
11836;DHT22;5977;51.972;7.640;2022-11-15T11:05:29;17.60;79.70
11836;DHT22;5977;51.972;7.640;2022-11-15T11:08:20;17.60;79.90
11836;DHT22;5977;51.972;7.640;2022-11-15T11:10:52;17.50;79.30
11836;DHT22;5977;51.972;7.640;2022-11-15T11:13:30;17.60;79.20
11836;DHT22;5977;51.972;7.640;2022-11-15T11:16:15;17.70;79.80
11836;DHT22;5977;51.972;7.640;2022-11-15T11:18:52;17.70;79.20
11836;DHT22;5977;51.972;7.640;2022-11-15T11:21:29;17.70;79.40
11836;DHT22;5977;51.972;7.640;2022-11-15T11:24:10;17.70;80.00
11836;DHT22;5977;51.972;7.640;2022-11-15T11:26:45;17.70;79.90
11836;DHT22;5977;51.972;7.640;2022-11-15T11:29:30;17.70;79.60
11836;DHT22;5977;51.972;7.640;2022-11-15T11:32:06;17.60;81.10
11836;DHT22;5977;51.972;7.640;2022-11-15T11:34:47;17.60;81.60
11836;DHT22;5977;51.972;7.640;2022-11-15T11:37:23;17.70;81.00
11836;DHT22;5977;51.972;7.640;2022-11-15T11:40:03;17.60;81.40
11836;DHT22;5977;51.972;7.640;2022-11-15T11:42:44;17.60;82.00
11836;DHT22;5977;51.972;7.640;2022-11-15T11:45:27;17.70;80.80
11836;DHT22;5977;51.972;7.640;2022-11-15T11:48:09;17.70;81.40
11836;DHT22;5977;51.972;7.640;2022-11-15T11:50:39;17.70;81.60
11836;DHT22;5977;51.972;7.640;2022-11-15T11:53:12;17.70;82.00
11836;DHT22;5977;51.972;7.640;2022-11-15T11:55:44;17.70;80.00
11836;DHT22;5977;51.972;7.640;2022-11-15T11:58:15;17.60;80.10
11836;DHT22;5977;51.972;7.640;2022-11-15T12:00:49;17.50;79.60
11836;DHT22;5977;51.972;7.640;2022-11-15T12:03:25;17.60;80.90
11836;DHT22;5977;51.972;7.640;2022-11-15T12:05:59;17.60;80.40
11836;DHT22;5977;51.972;7.640;2022-11-15T12:08:33;17.50;79.60
11836;DHT22;5977;51.972;7.640;2022-11-15T12:11:09;17.50;79.40
11836;DHT22;5977;51.972;7.640;2022-11-15T12:13:38;17.50;80.00
11836;DHT22;5977;51.972;7.640;2022-11-15T12:16:12;17.50;79.40
11836;DHT22;5977;51.972;7.640;2022-11-15T12:18:44;17.50;79.70
11836;DHT22;5977;51.972;7.640;2022-11-15T12:21:16;17.50;78.60
11836;DHT22;5977;51.972;7.640;2022-11-15T12:23:59;17.60;78.80
11836;DHT22;5977;51.972;7.640;2022-11-15T12:26:34;17.50;79.10
11836;DHT22;5977;51.972;7.640;2022-11-15T12:29:05;17.60;78.80
11836;DHT22;5977;51.972;7.640;2022-11-15T12:31:40;17.50;77.50
11836;DHT22;5977;51.972;7.640;2022-11-15T12:34:28;17.50;78.10
11836;DHT22;5977;51.972;7.640;2022-11-15T12:36:57;17.40;77.20
11836;DHT22;5977;51.972;7.640;2022-11-15T12:42:40;17.50;77.50
11836;DHT22;5977;51.972;7.640;2022-11-15T12:45:25;17.50;78.00
11836;DHT22;5977;51.972;7.640;2022-11-15T12:47:57;17.50;76.60
11836;DHT22;5977;51.972;7.640;2022-11-15T12:50:54;17.50;78.10
11836;DHT22;5977;51.972;7.640;2022-11-15T12:53:33;17.40;77.00
11836;DHT22;5977;51.972;7.640;2022-11-15T12:56:21;17.40;77.70
11836;DHT22;5977;51.972;7.640;2022-11-15T12:58:53;17.20;75.80
11836;DHT22;5977;51.972;7.640;2022-11-15T13:01:57;17.30;77.50
11836;DHT22;5977;51.972;7.640;2022-11-15T13:04:29;17.20;75.60
11836;DHT22;5977;51.972;7.640;2022-11-15T13:07:00;17.10;76.80
11836;DHT22;5977;51.972;7.640;2022-11-15T13:09:52;17.20;77.40
11836;DHT22;5977;51.972;7.640;2022-11-15T13:12:50;17.30;77.40
11836;DHT22;5977;51.972;7.640;2022-11-15T13:15:44;17.30;75.40
11836;DHT22;5977;51.972;7.640;2022-11-15T13:18:32;17.30;75.70
11836;DHT22;5977;51.972;7.640;2022-11-15T13:21:03;17.40;76.40
11836;DHT22;5977;51.972;7.640;2022-11-15T13:23:54;17.40;76.90
11836;DHT22;5977;51.972;7.640;2022-11-15T13:26:22;17.50;76.60
11836;DHT22;5977;51.972;7.640;2022-11-15T13:28:52;17.30;75.50
11836;DHT22;5977;51.972;7.640;2022-11-15T13:31:28;17.40;74.30
11836;DHT22;5977;51.972;7.640;2022-11-15T13:33:59;17.30;74.70
11836;DHT22;5977;51.972;7.640;2022-11-15T13:36:31;17.40;76.50
11836;DHT22;5977;51.972;7.640;2022-11-15T13:39:02;17.50;76.10
11836;DHT22;5977;51.972;7.640;2022-11-15T13:41:32;17.40;74.70
11836;DHT22;5977;51.972;7.640;2022-11-15T13:44:01;17.40;74.20
11836;DHT22;5977;51.972;7.640;2022-11-15T13:46:30;17.40;73.60
11836;DHT22;5977;51.972;7.640;2022-11-15T13:49:00;17.50;74.10
11836;DHT22;5977;51.972;7.640;2022-11-15T13:51:37;17.50;73.80
11836;DHT22;5977;51.972;7.640;2022-11-15T13:54:17;17.40;74.30
11836;DHT22;5977;51.972;7.640;2022-11-15T13:56:49;17.40;74.40
11836;DHT22;5977;51.972;7.640;2022-11-15T13:59:26;17.40;74.00
11836;DHT22;5977;51.972;7.640;2022-11-15T14:01:56;17.40;74.20
11836;DHT22;5977;51.972;7.640;2022-11-15T14:04:26;17.30;73.70
11836;DHT22;5977;51.972;7.640;2022-11-15T14:06:59;17.30;76.20
11836;DHT22;5977;51.972;7.640;2022-11-15T14:09:35;17.40;73.60
11836;DHT22;5977;51.972;7.640;2022-11-15T14:12:22;17.40;75.20
11836;DHT22;5977;51.972;7.640;2022-11-15T14:14:51;17.40;74.50
11836;DHT22;5977;51.972;7.640;2022-11-15T14:17:21;17.40;74.90
11836;DHT22;5977;51.972;7.640;2022-11-15T14:19:50;17.30;73.90
11836;DHT22;5977;51.972;7.640;2022-11-15T14:22:22;17.40;74.10
11836;DHT22;5977;51.972;7.640;2022-11-15T14:25:13;17.30;74.20
11836;DHT22;5977;51.972;7.640;2022-11-15T14:27:42;17.40;74.80
11836;DHT22;5977;51.972;7.640;2022-11-15T14:30:15;17.40;75.10
11836;DHT22;5977;51.972;7.640;2022-11-15T14:32:45;17.40;74.90
11836;DHT22;5977;51.972;7.640;2022-11-15T14:35:16;17.40;75.70
11836;DHT22;5977;51.972;7.640;2022-11-15T14:37:46;17.40;75.70
11836;DHT22;5977;51.972;7.640;2022-11-15T14:40:15;17.40;74.40
11836;DHT22;5977;51.972;7.640;2022-11-15T14:42:44;17.40;76.10
11836;DHT22;5977;51.972;7.640;2022-11-15T14:45:14;17.30;75.80
11836;DHT22;5977;51.972;7.640;2022-11-15T14:47:43;17.30;74.70
11836;DHT22;5977;51.972;7.640;2022-11-15T14:50:12;17.40;76.20
11836;DHT22;5977;51.972;7.640;2022-11-15T14:52:40;17.30;76.40
11836;DHT22;5977;51.972;7.640;2022-11-15T14:55:16;17.30;76.30
11836;DHT22;5977;51.972;7.640;2022-11-15T14:57:45;17.40;76.50
11836;DHT22;5977;51.972;7.640;2022-11-15T15:00:14;17.30;75.30
11836;DHT22;5977;51.972;7.640;2022-11-15T15:02:44;17.30;76.70
11836;DHT22;5977;51.972;7.640;2022-11-15T15:05:17;17.30;76.30
11836;DHT22;5977;51.972;7.640;2022-11-15T15:07:45;17.30;75.70
11836;DHT22;5977;51.972;7.640;2022-11-15T15:10:16;17.20;76.20
11836;DHT22;5977;51.972;7.640;2022-11-15T15:13:04;17.20;75.90
11836;DHT22;5977;51.972;7.640;2022-11-15T15:15:34;17.20;76.70
11836;DHT22;5977;51.972;7.640;2022-11-15T15:18:03;17.20;77.00
11836;DHT22;5977;51.972;7.640;2022-11-15T15:20:35;17.30;77.50
11836;DHT22;5977;51.972;7.640;2022-11-15T15:23:07;17.20;76.40
11836;DHT22;5977;51.972;7.640;2022-11-15T15:25:37;17.20;77.20
11836;DHT22;5977;51.972;7.640;2022-11-15T15:28:05;17.30;77.60
11836;DHT22;5977;51.972;7.640;2022-11-15T15:30:33;17.20;77.20
11836;DHT22;5977;51.972;7.640;2022-11-15T15:33:01;17.30;77.30
11836;DHT22;5977;51.972;7.640;2022-11-15T15:35:32;17.30;77.90
11836;DHT22;5977;51.972;7.640;2022-11-15T15:38:00;17.20;77.70
11836;DHT22;5977;51.972;7.640;2022-11-15T15:40:29;17.20;78.00
11836;DHT22;5977;51.972;7.640;2022-11-15T15:42:59;17.20;78.50
11836;DHT22;5977;51.972;7.640;2022-11-15T15:45:27;17.20;78.50
11836;DHT22;5977;51.972;7.640;2022-11-15T15:47:56;17.10;79.00
11836;DHT22;5977;51.972;7.640;2022-11-15T15:50:25;17.10;78.50
11836;DHT22;5977;51.972;7.640;2022-11-15T15:52:56;17.10;78.70
11836;DHT22;5977;51.972;7.640;2022-11-15T15:55:24;17.10;79.10
11836;DHT22;5977;51.972;7.640;2022-11-15T15:57:53;17.10;78.90
11836;DHT22;5977;51.972;7.640;2022-11-15T16:00:23;17.10;79.00
11836;DHT22;5977;51.972;7.640;2022-11-15T16:02:52;17.00;79.10
11836;DHT22;5977;51.972;7.640;2022-11-15T16:05:20;17.20;81.30
11836;DHT22;5977;51.972;7.640;2022-11-15T16:07:48;17.30;81.10
11836;DHT22;5977;51.972;7.640;2022-11-15T16:10:20;17.50;80.70
11836;DHT22;5977;51.972;7.640;2022-11-15T16:12:49;17.50;80.20
11836;DHT22;5977;51.972;7.640;2022-11-15T16:15:17;17.50;80.10
11836;DHT22;5977;51.972;7.640;2022-11-15T16:17:49;17.60;80.30
11836;DHT22;5977;51.972;7.640;2022-11-15T16:20:36;17.60;80.30
11836;DHT22;5977;51.972;7.640;2022-11-15T16:23:07;17.50;79.40
11836;DHT22;5977;51.972;7.640;2022-11-15T16:25:41;17.60;80.40
11836;DHT22;5977;51.972;7.640;2022-11-15T16:28:19;17.70;80.20
11836;DHT22;5977;51.972;7.640;2022-11-15T16:30:47;17.60;79.80
11836;DHT22;5977;51.972;7.640;2022-11-15T16:33:23;17.60;80.20
11836;DHT22;5977;51.972;7.640;2022-11-15T16:35:51;17.70;80.50
11836;DHT22;5977;51.972;7.640;2022-11-15T16:38:19;17.60;80.30
11836;DHT22;5977;51.972;7.640;2022-11-15T16:40:47;17.70;80.30
11836;DHT22;5977;51.972;7.640;2022-11-15T16:43:15;17.50;80.30
11836;DHT22;5977;51.972;7.640;2022-11-15T16:45:43;17.50;80.20
11836;DHT22;5977;51.972;7.640;2022-11-15T16:48:20;17.40;79.50
11836;DHT22;5977;51.972;7.640;2022-11-15T16:50:50;17.40;79.40
11836;DHT22;5977;51.972;7.640;2022-11-15T16:53:21;17.30;78.70
11836;DHT22;5977;51.972;7.640;2022-11-15T16:55:49;17.40;79.40
11836;DHT22;5977;51.972;7.640;2022-11-15T16:58:17;17.30;78.40
11836;DHT22;5977;51.972;7.640;2022-11-15T17:00:44;17.40;79.10
11836;DHT22;5977;51.972;7.640;2022-11-15T17:03:12;17.40;78.80
11836;DHT22;5977;51.972;7.640;2022-11-15T17:05:40;17.40;78.70
11836;DHT22;5977;51.972;7.640;2022-11-15T17:08:09;17.40;78.50
11836;DHT22;5977;51.972;7.640;2022-11-15T17:10:39;17.50;78.40
11836;DHT22;5977;51.972;7.640;2022-11-15T17:13:08;17.40;78.10
11836;DHT22;5977;51.972;7.640;2022-11-15T17:15:36;17.50;78.40
11836;DHT22;5977;51.972;7.640;2022-11-15T17:18:04;17.50;78.10
11836;DHT22;5977;51.972;7.640;2022-11-15T17:20:32;17.50;78.00
11836;DHT22;5977;51.972;7.640;2022-11-15T17:23:00;17.50;77.40
11836;DHT22;5977;51.972;7.640;2022-11-15T17:25:30;17.50;78.20
11836;DHT22;5977;51.972;7.640;2022-11-15T17:27:57;17.50;77.40
11836;DHT22;5977;51.972;7.640;2022-11-15T17:30:25;17.50;77.90